• Join FlightAware (Why Join?)
  • Login
  • US Flag 
05:57AM EST


 

Airport Tracker/Info


-or-


 

Live Flight TrackerFlight Track Log ✈ ASQ4633 ✈ 14-Jun-2013 ✈ KDEN - KMLI

Flight Track Log - Related Links

Times and Time Zones

All times are in EDT time to prevent confusion due to time zone crossing. See the ASQ4633 flight status page for this flight to view local times or setup timezone preferences in your user account.

Time Position Orientation Groundspeed Altitude Reporting Facility
EDT Latitude Longitude Course Direction KTS MPH feet Rate Location/Type
11:00PM 39.8856 -104.6000 72° East 184 212 7,000  Level Denver Center
11:01PM 39.9097 -104.5197 69° East 242 278 8,000 1,500 Climbing Denver Center
11:02PM 39.9292 -104.4206 76° East 277 319 10,100 1,680 Climbing Denver Center
11:03PM 39.8667 -104.0692 90° East  Level FlightAware Approximate
11:03PM 39.9481 -104.3019 78° East 304 350 11,500  Level Denver Center
11:04PM 39.8667 -103.9195 90° East  Level FlightAware Approximate
11:04PM 39.9636 -104.1814 80° East 341 392 13,000  Level Denver Center
11:05PM 39.8739 -103.7713 72° East  Level FlightAware Approximate
11:05PM 39.9400 -104.0572 104° East 349 402 14,900  Level Denver Center
11:06PM 39.9358 -103.9306 92° East 356 410 16,900 1,800 Climbing Denver Center
11:07PM 39.9597 -103.7953 77° East 355 409 18,600 1,320 Climbing Denver Center
11:08PM 39.9797 -103.6747 78° East 357 411 19,700 1,020 Climbing Denver Center
11:09PM 40.0033 -103.5325 78° East 399 459 20,700 1,020 Climbing Denver Center
11:10PM 40.0278 -103.3842 78° East 418 481 21,800 1,440 Climbing Denver Center
11:11PM 40.0572 -103.1994 78° East 433 498 23,700 1,860 Climbing Denver Center
11:12PM 40.0814 -103.0514 78° East 420 483 25,700 1,980 Climbing Denver Center
11:13PM 40.1056 -102.9100 77° East 402 463 27,900 2,100 Climbing Denver Center
11:14PM 40.1269 -102.7772 78° East 377 434 30,100 1,680 Climbing Denver Center
11:15PM 40.1483 -102.6453 78° East 369 425 31,400 1,140 Climbing Denver Center
11:16PM 40.1706 -102.4906 79° East 387 445 32,500 1,020 Climbing Denver Center
11:17PM 40.1931 -102.3564 78° East 394 453 33,500 900 Climbing Denver Center
11:18PM 40.2142 -102.2200 78° East 399 459 34,400 780 Climbing Denver Center
11:19PM 40.2394 -102.0578 78° East 406 467 35,100 780 Climbing Denver Center
11:20PM 40.2617 -101.9167 78° East 414 476 36,000 900 Climbing Denver Center
11:21PM 40.2853 -101.7522 79° East 413 475 37,000 480 Climbing Denver Center
11:22PM 40.3081 -101.6064 78° East 425 489 37,000  Level Denver Center
11:23PM 40.3308 -101.4544 79° East 443 510 37,000  Level Denver Center
11:24PM 40.3569 -101.2700 79° East 461 531 37,000  Level Denver Center
11:25PM 40.3806 -101.1050 79° East 480 552 37,000  Level Denver Center
11:26PM 40.4083 -100.9111 79° East 486 559 37,000  Level Denver Center
11:27PM 40.4331 -100.7436 79° East 493 567 37,000  Level Denver Center
11:28PM 40.4589 -100.5517 80° East 484 557 37,000  Level Denver Center
11:29PM 40.4806 -100.3914 80° East 471 542 37,000  Level Denver Center
11:31PM 40.5069 -100.2067 79° East 465 535 37,000  Level Denver Center
11:32PM 40.5292 -100.0453 80° East 469 540 37,000  Level Denver Center
11:33PM 40.5503 -99.8825 80° East 474 545 37,000  Level Denver Center
11:34PM 40.5756 -99.6944 80° East 463 533 37,000  Level Denver Center
11:35PM 40.5961 -99.5350 80° East 447 514 37,000  Level Denver Center
11:36PM 40.6164 -99.3756 80° East 444 511 37,000  Level Denver Center
11:37PM 40.6383 -99.2133 80° East 450 518 37,000  Level Denver Center
11:38PM 40.6572 -99.0486 81° East 456 525 37,000  Level Denver Center
11:38PM 40.6692 -98.9525 81° East 454 522 37,000  Level Minneapolis Center
11:39PM 40.6906 -98.7886 80° East 457 526 37,000  Level Minneapolis Center
11:40PM 40.7100 -98.6203 81° East 465 535 37,000  Level Minneapolis Center
11:41PM 40.7311 -98.4528 81° East 467 537 37,000  Level Minneapolis Center
11:42PM 40.7286 -98.2875 91° East 459 528 37,000  Level Minneapolis Center
11:43PM 40.7044 -98.1244 101° East 455 524 37,000  Level Minneapolis Center
11:44PM 40.6794 -97.9600 101° East 458 527 37,000  Level Minneapolis Center
11:45PM 40.6556 -97.7919 101° East 464 534 37,000  Level Minneapolis Center
11:47PM 40.6269 -97.5900 101° East 468 539 37,000  Level Minneapolis Center
11:48PM 40.5939 -97.3883 102° East 469 540 37,000  Level Minneapolis Center
11:49PM 40.5631 -97.2356 105° East 458 527 37,000  Level Minneapolis Center
11:50PM 40.5300 -97.0783 105° East 450 518 37,000  Level Minneapolis Center
11:51PM 40.4972 -96.9181 105° East 454 522 37,000  Level Minneapolis Center
11:52PM 40.4642 -96.7542 105° East 462 532 37,000  Level Minneapolis Center
11:53PM 40.4431 -96.5883 99° East 463 533 37,000  Level Minneapolis Center
11:54PM 40.4075 -96.3569 101° East 463 533 37,000  Level Minneapolis Center
11:55PM 40.3878 -96.1922 99° East 460 529 37,000  Level Minneapolis Center
11:56PM 40.3656 -95.9978 98° East 454 522 37,000  Level Minneapolis Center
11:57PM 40.3442 -95.8336 100° East 457 526 37,000  Level Minneapolis Center
11:58PM 40.3311 -95.6739 96° East 448 516 37,000  Level Minneapolis Center
11:59PM 40.3353 -95.5131 88° East 443 510 37,000  Level Minneapolis Center
12:00AM 40.3439 -95.3186 87° East 445 512 37,000  Level Minneapolis Center
12:01AM 40.3583 -95.1539 83° East 453 521 37,000  Level Minneapolis Center
12:02AM 40.3833 -94.9886 79° East 460 529 37,000  Level Minneapolis Center
12:03AM 40.3969 -94.8906 80° East 459 528 37,000  Level Minneapolis Center
12:04AM 40.4242 -94.7369 77° East 443 510 37,000  Level Minneapolis Center
12:05AM 40.4642 -94.5922 70° East 425 489 37,000  Level Minneapolis Center
12:06AM 40.4958 -94.4681 71° East 420 483 37,000  Level Minneapolis Center
12:07AM 40.5347 -94.3172 71° East 429 494 37,000  Level Minneapolis Center
12:08AM 40.5856 -94.1300 70° East 449 517 37,000  Level Minneapolis Center
12:09AM 40.6253 -93.9703 72° East 459 528 37,000  Level Minneapolis Center
12:10AM 40.6578 -93.8400 72° East 465 535 37,000  Level Minneapolis Center
12:11AM 40.7061 -93.6453 72° East 468 539 37,000  Level Minneapolis Center
12:11AM 40.7158 -93.6094 70° East 473 544 37,000  Level Chicago Center
12:12AM 40.7583 -93.4403 72° East 483 556 37,000  Level Chicago Center
12:13AM 40.8003 -93.2714 72° East 487 560 37,000  Level Chicago Center
12:14AM 40.8408 -93.1111 71° East 471 542 37,000 -180 Level Chicago Center
12:15AM 40.8872 -92.9231 72° East 452 520 36,700 -600 Descending Chicago Center
12:16AM 40.9275 -92.7594 72° East 466 536 35,800 -1,200 Descending Chicago Center
12:17AM 40.9683 -92.5919 72° East 476 548 34,300 -2,340 Descending Chicago Center
12:18AM 41.0056 -92.4319 73° East 461 531 31,100 -3,060 Descending Chicago Center
12:19AM 41.0453 -92.2667 72° East 470 541 28,200 -3,120 Descending Chicago Center
12:20AM 41.0853 -92.0983 72° East 479 551 24,900 -3,240 Descending Chicago Center
12:21AM 41.1219 -91.9411 73° East 457 526 21,700 -3,420 Descending Chicago Center
12:22AM 41.1547 -91.8042 72° East 409 471 18,100 -3,660 Descending Chicago Center
12:23AM 41.1856 -91.6758 72° East 371 427 14,300 -3,540 Descending Chicago Center
12:24AM 41.2128 -91.5575 73° East 356 410 11,000 -2,340 Descending Chicago Center
12:25AM 41.2383 -91.4461 73° East 318 366 9,600 -1,920 Descending Chicago Center
12:26AM 41.2639 -91.3342 73° East 283 326 7,200 -1,620 Descending Chicago Center
12:27AM 41.2825 -91.2506 73° East 278 320 6,400 -840 Descending Chicago Center
12:28AM 41.3050 -91.1497 73° East 284 327 5,600 -840 Descending Chicago Center
12:29AM 41.3281 -91.0511 73° East 279 321 4,800 -780 Descending Chicago Center
12:30AM 41.3492 -90.9700 71° East 246 283 4,100 -720 Descending Chicago Center
12:31AM 41.3733 -90.8822 70° East 246 283 3,400 -720 Descending Chicago Center